»·PEaware :: N1DB KSFO-KMMH

N1DB :: KSFO-KMMH

FLIGHT INFORMATION

Flight Status: Arrived
Operator: Privately registered:
United States
More flights under this callsign
Pilot: Dominic B. (18944)
Aircraft: MITSUBISHI MU-2 MARQUISE
(MU2)
More flights by this aircraft type
Origin: KSFO San Francisco Intl
United States
Destination: KMMH Mammoth Yosemite
United States
More flights between these airports :: More routes between these airports
Route: SFO4 MOD
File this flight plan on PilotEdge
Remarks: RMK / SIMBRIEF
Altitude:
(Current/Filed)
23,000ft
Speed:
(Current/Filed)
286kts
Departed: 12-Sep-22 03:42 PM
Arrived: 12-Sep-22 04:37 PM
Distance/Time
Traveled:
168nm/0:55
Distance/Time
To Go:
Arrived

Flight Plot

Page will automatically refresh every two minutes.

Flight plan parsing failed; only flown route is shown


Map Options




Map Legend


Flown Route
Filed Route
Departure Airport
Arrival Airport
Navaid (VOR, NDB)
Fix

Horizontal Profiles

Position Reports

Time Latitude Longitude Heading Altitude Ground
Speed
12-Sep-22 15:09 37.627683 -122.383160 298 13ft 0kts
12-Sep-22 15:10 37.627683 -122.383160 298 13ft 0kts
12-Sep-22 15:11 37.627683 -122.383160 298 13ft 0kts
12-Sep-22 15:12 37.627683 -122.383160 298 13ft 0kts
12-Sep-22 15:13 37.627683 -122.383160 298 13ft 0kts
12-Sep-22 15:14 37.627683 -122.383160 298 13ft 0kts
12-Sep-22 15:15 37.627683 -122.383160 298 13ft 0kts
12-Sep-22 15:16 37.627683 -122.383160 298 13ft 0kts
12-Sep-22 15:17 37.627683 -122.383160 298 13ft 0kts
12-Sep-22 15:18 37.627683 -122.383160 298 13ft 0kts
12-Sep-22 15:19 37.627683 -122.383160 298 13ft 0kts
12-Sep-22 15:20 37.627683 -122.383160 298 13ft 0kts
12-Sep-22 15:21 37.627683 -122.383160 298 13ft 0kts
12-Sep-22 15:22 37.627683 -122.383160 298 13ft 0kts
12-Sep-22 15:23 37.627683 -122.383160 298 13ft 0kts
12-Sep-22 15:24 37.627683 -122.383160 298 13ft 0kts
12-Sep-22 15:25 37.627683 -122.383160 298 13ft 0kts
12-Sep-22 15:26 37.627683 -122.383160 298 13ft 0kts
12-Sep-22 15:27 37.627683 -122.383160 298 13ft 0kts
12-Sep-22 15:28 37.627683 -122.383160 298 13ft 0kts
12-Sep-22 15:29 37.627683 -122.383160 298 13ft 0kts
12-Sep-22 15:30 37.627558 -122.383994 231 13ft 7kts
12-Sep-22 15:31 37.627372 -122.384194 213 13ft 0kts
12-Sep-22 15:32 37.626368 -122.384073 118 13ft 11kts
12-Sep-22 15:33 37.624741 -122.380224 119 13ft 14kts
12-Sep-22 15:34 37.623488 -122.377210 118 13ft 5kts
12-Sep-22 15:35 37.622530 -122.374904 117 13ft 8kts
12-Sep-22 15:36 37.621392 -122.372176 116 13ft 8kts
12-Sep-22 15:37 37.619683 -122.368125 116 13ft 20kts
12-Sep-22 15:38 37.616978 -122.361676 118 13ft 14kts
12-Sep-22 15:39 37.615599 -122.358360 118 13ft 11kts
12-Sep-22 15:40 37.614715 -122.356747 166 13ft 3kts
12-Sep-22 15:41 37.615481 -122.361798 297 13ft 87kts
12-Sep-22 15:42 37.630547 -122.398661 294 1214ft 147kts
12-Sep-22 15:43 37.649017 -122.444470 297 3780ft 148kts
12-Sep-22 15:44 37.688762 -122.447984 13 5872ft 168kts
12-Sep-22 15:45 37.733071 -122.427024 54 7752ft 180kts
12-Sep-22 15:46 37.732493 -122.364153 96 9458ft 184kts
12-Sep-22 15:47 37.728081 -122.299857 97 11920ft 189kts
12-Sep-22 15:48 37.723402 -122.232613 97 14181ft 196kts
12-Sep-22 15:49 37.718565 -122.163658 97 16132ft 202kts
12-Sep-22 15:50 37.713414 -122.090923 97 17741ft 218kts
12-Sep-22 15:51 37.707630 -122.009809 97 18589ft 243kts
12-Sep-22 15:52 37.701421 -121.923668 96 19483ft 249kts
12-Sep-22 15:53 37.694973 -121.835248 96 20274ft 254kts
12-Sep-22 15:54 37.688386 -121.745798 96 20974ft 257kts
12-Sep-22 15:55 37.681678 -121.655558 96 21605ft 260kts
12-Sep-22 15:56 37.674789 -121.563898 96 22124ft 263kts
12-Sep-22 15:57 37.667732 -121.471035 96 22608ft 265kts
12-Sep-22 15:58 37.660592 -121.378069 96 22991ft 267kts
12-Sep-22 15:59 37.653292 -121.284089 96 23342ft 268kts
12-Sep-22 16:00 37.645911 -121.189956 96 23506ft 270kts
12-Sep-22 16:01 37.638463 -121.095851 96 23589ft 269kts
12-Sep-22 16:02 37.630940 -121.001818 96 23646ft 270kts
12-Sep-22 16:03 37.627735 -120.906985 89 23696ft 271kts
12-Sep-22 16:04 37.628403 -120.809329 89 23508ft 277kts
12-Sep-22 16:05 37.628957 -120.712356 90 23523ft 276kts
12-Sep-22 16:06 37.629430 -120.615682 90 23542ft 275kts
12-Sep-22 16:07 37.629825 -120.518692 90 23552ft 275kts
12-Sep-22 16:08 37.630130 -120.422084 90 23566ft 274kts
12-Sep-22 16:09 37.630369 -120.324990 90 23573ft 274kts
12-Sep-22 16:10 37.630525 -120.228487 90 23578ft 274kts
12-Sep-22 16:11 37.630604 -120.132233 90 23586ft 273kts
12-Sep-22 16:12 37.630608 -120.035948 90 23593ft 273kts
12-Sep-22 16:13 37.630532 -119.940340 90 23570ft 275kts
12-Sep-22 16:14 37.630369 -119.840036 90 22575ft 290kts
12-Sep-22 16:15 37.630116 -119.737078 90 21476ft 293kts
12-Sep-22 16:16 37.639076 -119.635662 72 20345ft 293kts
12-Sep-22 16:17 37.664589 -119.537151 71 19203ft 293kts
12-Sep-22 16:18 37.690498 -119.438764 71 18137ft 292kts
12-Sep-22 16:19 37.716426 -119.341562 72 17108ft 291kts
12-Sep-22 16:20 37.742355 -119.245325 72 16477ft 277kts
12-Sep-22 16:21 37.762464 -119.154393 82 16469ft 262kts
12-Sep-22 16:22 37.774399 -119.063877 82 16473ft 258kts
12-Sep-22 16:23 37.773342 -118.975265 101 16477ft 254kts
12-Sep-22 16:24 37.761376 -118.886582 101 16475ft 254kts
12-Sep-22 16:25 37.749278 -118.797467 101 16467ft 256kts
12-Sep-22 16:26 37.737117 -118.708417 101 16468ft 257kts
12-Sep-22 16:27 37.724896 -118.619419 101 16468ft 245kts
12-Sep-22 16:28 37.715064 -118.548429 104 15818ft 184kts
12-Sep-22 16:29 37.672561 -118.523820 161 13765ft 188kts
12-Sep-22 16:30 37.632295 -118.535330 258 11447ft 181kts
12-Sep-22 16:31 37.624789 -118.598620 260 9286ft 185kts
12-Sep-22 16:32 37.617485 -118.661800 260 9211ft 179kts
12-Sep-22 16:33 37.615155 -118.724524 272 8903ft 173kts
12-Sep-22 16:34 37.618091 -118.776771 271 7971ft 135kts
12-Sep-22 16:35 37.619254 -118.820125 282 7156ft 116kts
12-Sep-22 16:36 37.624296 -118.839645 288 7108ft 31kts
12-Sep-22 16:37 37.626408 -118.841781 5 7114ft 4kts

Navigation Log

Ident Type
Flight plan parsing failed, navigation log unavailable